Terminal Aerodrome Forecast
Issued by NWS Shreveport, LA

Home | Current Version | Previous Version | Text Only | Print | Product List | Glossary On
Versions: 1 2 3 4 5 6 7 8 9 10 11 12 13 14 15 16
000
FTUS44 KSHV 031739
TAFSHV
TAF
KSHV 031739Z 0318/0418 10004KT P6SM SCT030
     FM040000 11004KT P6SM SKC
     FM041100 11002KT 4SM BR FEW250
     FM041400 11003KT P6SM FEW250=

USA.gov is the U.S. government's official web portal to all federal, state and local government web resources and services.